Terminal Aerodrome Forecast
Issued by NWS

Home | Current Version | Previous Version | Graphics & Text | Print | Product List | Glossary On
Versions: 1 2 3 4 5 6 7 8 9 10 11 12 13 14 15
000
FTUS43 KGRB 111100
TAFCWA
TAF
KCWA 111135Z 1112/1212 19006KT P6SM SCT060 BKN120
      TEMPO 1112/1115 -SHRA BKN060
     FM111500 20012G19KT P6SM VCSH BKN045 OVC100
     FM120600 18003KT 5SM BR SCT008 BKN018=

USA.gov is the U.S. government's official web portal to all federal, state and local government web resources and services.